createdAt,value
2018-11-11T00:00:23.751Z,95.10
2018-11-11T00:01:27.359Z,95.00
2018-11-11T00:02:30.967Z,94.90
2018-11-11T00:03:34.573Z,94.90
2018-11-11T00:04:38.176Z,94.80
2018-11-11T00:05:41.784Z,94.70
2018-11-11T00:06:45.502Z,94.70
2018-11-11T00:07:49.125Z,94.60
2018-11-11T00:08:52.716Z,94.50
2018-11-11T00:09:56.310Z,94.50
2018-11-11T00:10:59.899Z,94.50
2018-11-11T00:12:03.483Z,94.50
2018-11-11T00:13:07.139Z,94.30
2018-11-11T00:14:10.724Z,94.30
2018-11-11T00:15:15.502Z,94.20
2018-11-11T00:16:19.079Z,94.20
2018-11-11T00:17:22.667Z,94.60
2018-11-11T00:18:26.255Z,94.10
2018-11-11T00:19:29.841Z,94.10
2018-11-11T00:20:33.451Z,94.20
2018-11-11T00:21:37.227Z,94.10
2018-11-11T00:22:41.190Z,93.80
2018-11-11T00:23:44.802Z,93.90
2018-11-11T00:24:48.383Z,94.00
2018-11-11T00:25:51.976Z,94.10
2018-11-11T00:26:55.613Z,94.10
2018-11-11T00:27:59.195Z,94.00
2018-11-11T00:29:02.791Z,94.10
2018-11-11T00:30:08.523Z,93.90
2018-11-11T00:31:12.131Z,93.70
2018-11-11T00:32:15.719Z,93.80
2018-11-11T00:33:19.348Z,93.90
2018-11-11T00:34:22.999Z,93.80
2018-11-11T00:35:26.595Z,93.90
2018-11-11T00:36:30.203Z,93.90
2018-11-11T00:37:33.869Z,93.90
2018-11-11T00:38:37.431Z,93.90
2018-11-11T00:39:41.935Z,94.10
2018-11-11T00:40:45.519Z,93.90
2018-11-11T00:41:49.151Z,94.00
2018-11-11T00:42:52.737Z,94.10
2018-11-11T00:43:56.335Z,94.40
2018-11-11T00:44:59.919Z,94.40
2018-11-11T00:46:03.525Z,94.40
2018-11-11T00:47:07.126Z,94.60
2018-11-11T00:48:10.724Z,94.70
2018-11-11T00:49:14.318Z,94.90
2018-11-11T00:50:17.952Z,95.00
2018-11-11T00:51:21.669Z,94.90
2018-11-11T00:52:25.228Z,95.00
2018-11-11T00:53:28.821Z,95.00
2018-11-11T00:54:32.415Z,95.00
2018-11-11T00:55:38.074Z,95.00
2018-11-11T00:56:41.656Z,95.10
2018-11-11T00:57:45.739Z,95.20
2018-11-11T00:58:49.346Z,95.30
2018-11-11T00:59:52.939Z,95.60
2018-11-11T01:00:56.551Z,95.50
2018-11-11T01:02:00.153Z,95.50
2018-11-11T01:03:03.747Z,95.60
2018-11-11T01:04:07.415Z,95.60
2018-11-11T01:05:11.711Z,95.60
2018-11-11T01:06:15.467Z,95.80
2018-11-11T01:07:19.079Z,95.70
2018-11-11T01:08:22.698Z,95.70
2018-11-11T01:09:26.392Z,95.70
2018-11-11T01:10:29.958Z,95.70
2018-11-11T01:11:33.551Z,95.80
2018-11-11T01:12:37.168Z,95.70
2018-11-11T01:13:40.791Z,95.70
2018-11-11T01:14:44.407Z,95.70
2018-11-11T01:15:48.011Z,95.80
2018-11-11T01:16:51.730Z,95.50
2018-11-11T01:17:55.307Z,95.80
2018-11-11T01:18:58.927Z,95.90
2018-11-11T01:20:02.536Z,95.90
2018-11-11T01:21:06.151Z,95.80
2018-11-11T01:22:09.746Z,95.80
2018-11-11T01:23:13.347Z,95.80
2018-11-11T01:24:16.943Z,95.90
2018-11-11T01:25:20.583Z,95.90
2018-11-11T01:26:24.268Z,95.90
2018-11-11T01:27:27.940Z,96.00
2018-11-11T01:28:31.528Z,96.00
2018-11-11T01:29:35.155Z,96.30
2018-11-11T01:30:38.816Z,96.00
2018-11-11T01:31:42.379Z,96.00
2018-11-11T01:32:46.005Z,96.00
2018-11-11T01:33:49.604Z,96.00
2018-11-11T01:34:53.223Z,96.00
2018-11-11T01:35:56.871Z,96.00
2018-11-11T01:37:00.431Z,96.00
2018-11-11T01:38:04.044Z,96.00
2018-11-11T01:39:08.096Z,96.10
2018-11-11T01:40:11.767Z,96.10
2018-11-11T01:41:15.386Z,96.10
2018-11-11T01:42:18.983Z,96.20
2018-11-11T01:43:22.578Z,96.20
2018-11-11T01:44:26.195Z,96.20
2018-11-11T01:45:29.805Z,96.10
2018-11-11T01:46:33.403Z,96.20
2018-11-11T01:47:37.078Z,96.20
2018-11-11T01:48:40.652Z,96.50
2018-11-11T01:49:44.257Z,96.20
2018-11-11T01:50:47.854Z,96.20
2018-11-11T01:51:51.459Z,96.20
2018-11-11T01:52:55.067Z,96.20
2018-11-11T01:53:58.679Z,96.20
2018-11-11T01:55:02.283Z,96.20
2018-11-11T01:56:06.286Z,96.30
2018-11-11T01:57:09.879Z,96.20
2018-11-11T01:58:13.493Z,96.20
2018-11-11T01:59:17.090Z,96.20
2018-11-11T02:00:20.684Z,96.20
2018-11-11T02:01:24.303Z,96.20
2018-11-11T02:02:27.918Z,96.20
2018-11-11T02:03:31.516Z,96.20
2018-11-11T02:04:35.111Z,96.40
2018-11-11T02:05:38.716Z,96.20
2018-11-11T02:06:42.421Z,96.20
2018-11-11T02:07:46.690Z,96.20
2018-11-11T02:08:50.378Z,96.20
2018-11-11T02:09:54.085Z,96.50
2018-11-11T02:10:57.601Z,96.20
2018-11-11T02:12:01.179Z,96.20
2018-11-11T02:13:04.983Z,96.20
2018-11-11T02:14:08.728Z,96.20
2018-11-11T02:15:13.463Z,96.30
2018-11-11T02:16:17.075Z,96.20
2018-11-11T02:17:20.713Z,96.20
2018-11-11T02:18:24.372Z,96.30
2018-11-11T02:19:27.935Z,96.20
2018-11-11T02:20:31.537Z,96.30
2018-11-11T02:21:35.211Z,96.30
2018-11-11T02:22:38.795Z,96.30
2018-11-11T02:23:42.383Z,96.30
2018-11-11T02:24:46.015Z,96.30
2018-11-11T02:25:49.611Z,96.30
2018-11-11T02:26:53.223Z,96.30
2018-11-11T02:27:56.851Z,96.30
2018-11-11T02:29:00.498Z,96.30
2018-11-11T02:30:04.776Z,96.30
2018-11-11T02:31:08.371Z,96.30
2018-11-11T02:32:11.971Z,96.30
2018-11-11T02:33:15.576Z,96.30
2018-11-11T02:34:19.172Z,96.30
2018-11-11T02:35:22.756Z,96.20
2018-11-11T02:36:26.373Z,96.20
2018-11-11T02:37:29.995Z,96.20
2018-11-11T02:38:33.613Z,96.20
2018-11-11T02:39:37.188Z,96.10
2018-11-11T02:40:40.770Z,96.10
2018-11-11T02:41:44.358Z,96.20
2018-11-11T02:42:48.589Z,96.20
2018-11-11T02:43:52.138Z,96.20
2018-11-11T02:44:55.723Z,96.20
2018-11-11T02:45:59.308Z,96.20
2018-11-11T02:47:02.899Z,96.20
2018-11-11T02:48:06.540Z,96.20
2018-11-11T02:49:10.087Z,96.10
2018-11-11T02:50:14.845Z,96.20
2018-11-11T02:51:18.383Z,96.20
2018-11-11T02:52:22.030Z,96.20
2018-11-11T02:53:25.591Z,96.20
2018-11-11T02:54:29.185Z,96.20
2018-11-11T02:55:32.767Z,96.20
2018-11-11T02:56:36.351Z,96.20
2018-11-11T02:57:40.357Z,96.20
2018-11-11T02:58:43.950Z,96.20
2018-11-11T02:59:47.533Z,96.20
2018-11-11T03:00:51.123Z,96.20
2018-11-11T03:01:54.751Z,96.30
2018-11-11T03:02:58.342Z,96.20
2018-11-11T03:04:01.897Z,96.20
2018-11-11T03:05:05.957Z,96.10
2018-11-11T03:06:09.538Z,96.20
2018-11-11T03:07:13.123Z,96.20
2018-11-11T03:08:16.719Z,96.10
2018-11-11T03:09:20.297Z,96.10
2018-11-11T03:10:23.888Z,96.10
2018-11-11T03:11:27.483Z,96.10
2018-11-11T03:12:31.068Z,96.10
2018-11-11T03:13:34.654Z,96.10
2018-11-11T03:14:38.247Z,96.10
2018-11-11T03:15:41.827Z,96.20
2018-11-11T03:16:45.407Z,96.20
2018-11-11T03:17:49.015Z,96.20
2018-11-11T03:18:52.603Z,96.20
2018-11-11T03:19:56.186Z,96.20
2018-11-11T03:20:59.767Z,96.20
2018-11-11T03:22:03.359Z,96.20
2018-11-11T03:23:06.965Z,96.20
2018-11-11T03:24:10.550Z,96.20
2018-11-11T03:25:15.217Z,96.30
2018-11-11T03:26:18.815Z,96.30
2018-11-11T03:27:22.407Z,96.30
2018-11-11T03:28:25.998Z,96.30
2018-11-11T03:29:29.578Z,96.30
2018-11-11T03:30:33.181Z,96.30
2018-11-11T03:31:36.818Z,96.30
2018-11-11T03:32:40.563Z,96.30
2018-11-11T03:33:44.155Z,96.30
2018-11-11T03:34:47.738Z,96.30
2018-11-11T03:35:51.323Z,96.30
2018-11-11T03:36:54.903Z,96.30
2018-11-11T03:37:58.564Z,96.30
2018-11-11T03:39:02.115Z,96.20
2018-11-11T03:40:11.460Z,96.30
2018-11-11T03:41:15.433Z,96.30
2018-11-11T03:42:19.023Z,96.30
2018-11-11T03:43:22.614Z,96.20
2018-11-11T03:44:26.199Z,96.30
2018-11-11T03:45:29.782Z,96.60
2018-11-11T03:46:33.367Z,96.30
2018-11-11T03:47:36.954Z,96.30
2018-11-11T03:48:40.547Z,96.30
2018-11-11T03:49:44.143Z,96.30
2018-11-11T03:50:47.730Z,96.30
2018-11-11T03:51:51.335Z,96.30
2018-11-11T03:52:54.916Z,96.30
2018-11-11T03:53:58.666Z,96.30
2018-11-11T03:55:02.257Z,96.30
2018-11-11T03:56:06.091Z,96.40
2018-11-11T03:57:09.672Z,96.40
2018-11-11T03:58:13.257Z,96.30
2018-11-11T03:59:16.855Z,96.30
2018-11-11T04:00:20.430Z,96.30
2018-11-11T04:01:24.023Z,96.30
2018-11-11T04:02:27.697Z,96.30
2018-11-11T04:03:31.285Z,96.30
2018-11-11T04:04:34.878Z,96.30
2018-11-11T04:05:38.465Z,96.40
2018-11-11T04:06:42.044Z,96.40
2018-11-11T04:07:45.627Z,96.40
2018-11-11T04:08:49.227Z,96.40
2018-11-11T04:09:52.827Z,96.50
2018-11-11T04:10:56.417Z,96.40
2018-11-11T04:11:59.972Z,96.40
2018-11-11T04:13:03.562Z,96.40
2018-11-11T04:14:07.457Z,96.40
2018-11-11T04:15:12.573Z,96.40
2018-11-11T04:16:16.159Z,96.40
2018-11-11T04:17:19.746Z,96.40
2018-11-11T04:18:23.343Z,96.40
2018-11-11T04:19:26.942Z,96.80
2018-11-11T04:20:30.574Z,96.30
2018-11-11T04:21:34.122Z,96.40
2018-11-11T04:22:37.707Z,96.30
2018-11-11T04:23:41.291Z,96.40
2018-11-11T04:24:45.293Z,96.40
2018-11-11T04:25:49.088Z,96.40
2018-11-11T04:26:52.731Z,96.40
2018-11-11T04:27:56.281Z,96.40
2018-11-11T04:28:59.891Z,96.40
2018-11-11T04:30:03.592Z,96.40
2018-11-11T04:31:07.194Z,96.40
2018-11-11T04:32:10.989Z,96.30
2018-11-11T04:33:14.579Z,96.30
2018-11-11T04:34:18.171Z,96.30
2018-11-11T04:35:21.715Z,96.70
2018-11-11T04:36:25.303Z,96.30
2018-11-11T04:37:28.942Z,96.30
2018-11-11T04:38:32.490Z,96.30
2018-11-11T04:39:36.087Z,96.30
2018-11-11T04:40:39.720Z,96.50
2018-11-11T04:41:43.271Z,96.30
2018-11-11T04:42:46.854Z,96.30
2018-11-11T04:43:50.446Z,96.30
2018-11-11T04:44:54.039Z,96.60
2018-11-11T04:45:57.619Z,96.30
2018-11-11T04:47:01.207Z,96.30
2018-11-11T04:48:04.932Z,96.40
2018-11-11T04:49:08.537Z,96.50
2018-11-11T04:50:13.411Z,96.40
2018-11-11T04:51:16.990Z,96.40
2018-11-11T04:52:20.623Z,96.40
2018-11-11T04:53:24.202Z,96.40
2018-11-11T04:54:27.798Z,96.30
2018-11-11T04:55:31.397Z,96.30
2018-11-11T04:56:35.103Z,96.30
2018-11-11T04:57:39.001Z,96.30
2018-11-11T04:58:42.593Z,96.30
2018-11-11T04:59:46.155Z,96.40
2018-11-11T05:00:49.743Z,96.40
2018-11-11T05:01:53.348Z,96.40
2018-11-11T05:02:56.939Z,96.40
2018-11-11T05:04:00.532Z,96.40
2018-11-11T05:05:04.427Z,96.50
2018-11-11T05:06:08.010Z,96.40
2018-11-11T05:07:11.592Z,96.40
2018-11-11T05:08:15.213Z,96.40
2018-11-11T05:09:18.767Z,96.40
2018-11-11T05:10:22.350Z,96.40
2018-11-11T05:11:25.983Z,96.40
2018-11-11T05:12:29.564Z,96.40
2018-11-11T05:13:33.151Z,96.40
2018-11-11T05:14:36.751Z,96.40
2018-11-11T05:15:40.344Z,96.40
2018-11-11T05:16:43.934Z,96.40
2018-11-11T05:17:47.498Z,96.40
2018-11-11T05:18:51.079Z,96.50
2018-11-11T05:19:54.760Z,96.50
2018-11-11T05:20:58.343Z,96.50
2018-11-11T05:22:02.039Z,96.40
2018-11-11T05:23:05.803Z,96.40
2018-11-11T05:24:09.399Z,96.40
2018-11-11T05:25:14.242Z,96.40
2018-11-11T05:26:17.822Z,96.40
2018-11-11T05:27:21.399Z,96.40
2018-11-11T05:28:24.982Z,96.40
2018-11-11T05:29:28.657Z,96.40
2018-11-11T05:30:32.251Z,96.30
2018-11-11T05:31:35.795Z,96.40
2018-11-11T05:32:39.576Z,96.30
2018-11-11T05:33:43.151Z,96.40
2018-11-11T05:34:46.770Z,96.30
2018-11-11T05:35:50.359Z,96.30
2018-11-11T05:36:53.942Z,96.30
2018-11-11T05:37:57.523Z,96.30
2018-11-11T05:39:01.176Z,96.30
2018-11-11T05:40:05.992Z,96.30
2018-11-11T05:41:09.571Z,96.30
2018-11-11T05:42:13.177Z,96.40
2018-11-11T05:43:16.759Z,96.40
2018-11-11T05:44:20.355Z,96.40
2018-11-11T05:45:23.955Z,96.40
2018-11-11T05:46:27.531Z,96.70
2018-11-11T05:47:31.126Z,96.30
2018-11-11T05:48:34.698Z,96.30
2018-11-11T05:49:38.279Z,96.30
2018-11-11T05:50:41.871Z,96.30
2018-11-11T05:51:45.457Z,96.30
2018-11-11T05:52:49.080Z,96.30
2018-11-11T05:53:52.621Z,96.30
2018-11-11T05:54:56.203Z,96.30
2018-11-11T05:55:59.790Z,96.20
2018-11-11T05:57:03.370Z,96.20
2018-11-11T05:58:06.969Z,96.20
2018-11-11T05:59:10.553Z,96.20
2018-11-11T06:00:15.391Z,96.20
2018-11-11T06:01:18.971Z,96.20
2018-11-11T06:02:22.566Z,96.30
2018-11-11T06:03:26.150Z,96.30
2018-11-11T06:04:29.742Z,96.20
2018-11-11T06:05:33.335Z,96.20
2018-11-11T06:06:36.918Z,96.20
2018-11-11T06:07:40.522Z,96.20
2018-11-11T06:08:44.107Z,96.20
2018-11-11T06:09:47.695Z,96.20
2018-11-11T06:10:51.287Z,96.20
2018-11-11T06:11:54.870Z,96.20
2018-11-11T06:12:58.463Z,96.20
2018-11-11T06:14:02.038Z,96.20
2018-11-11T06:15:06.919Z,96.20
2018-11-11T06:16:10.525Z,96.20
2018-11-11T06:17:14.093Z,96.10
2018-11-11T06:18:17.680Z,96.10
2018-11-11T06:19:21.282Z,96.10
2018-11-11T06:20:24.890Z,96.00
2018-11-11T06:21:28.495Z,96.00
2018-11-11T06:22:32.071Z,96.00
2018-11-11T06:23:35.666Z,96.00
2018-11-11T06:24:39.394Z,96.40
2018-11-11T06:25:42.990Z,96.00
2018-11-11T06:26:46.681Z,96.00
2018-11-11T06:27:50.262Z,96.00
2018-11-11T06:28:53.863Z,96.00
2018-11-11T06:29:57.505Z,96.00
2018-11-11T06:31:01.068Z,95.90
2018-11-11T06:32:05.396Z,95.90
2018-11-11T06:33:08.993Z,95.90
2018-11-11T06:34:12.640Z,95.80
2018-11-11T06:35:16.146Z,95.70
2018-11-11T06:36:19.736Z,95.70
2018-11-11T06:37:23.314Z,95.60
2018-11-11T06:38:26.890Z,95.60
2018-11-11T06:39:30.482Z,95.50
2018-11-11T06:40:34.129Z,95.50
2018-11-11T06:41:37.682Z,95.50
2018-11-11T06:42:41.561Z,95.40
2018-11-11T06:43:45.163Z,95.40
2018-11-11T06:44:48.742Z,95.30
2018-11-11T06:45:52.381Z,95.60
2018-11-11T06:46:55.963Z,95.30
2018-11-11T06:47:59.559Z,95.40
2018-11-11T06:49:03.156Z,95.30
2018-11-11T06:50:07.979Z,95.30
2018-11-11T06:51:11.570Z,95.20
2018-11-11T06:52:15.159Z,95.10
2018-11-11T06:53:18.747Z,95.00
2018-11-11T06:54:22.323Z,95.00
2018-11-11T06:55:25.914Z,94.80
2018-11-11T06:56:29.671Z,94.80
2018-11-11T06:57:33.267Z,94.60
2018-11-11T06:58:36.846Z,94.60
2018-11-11T06:59:40.762Z,94.70
2018-11-11T07:00:44.347Z,94.60
2018-11-11T07:01:47.980Z,94.80
2018-11-11T07:03:03.076Z,95.00
2018-11-11T07:04:06.660Z,95.60
2018-11-11T07:05:10.243Z,94.80
2018-11-11T07:06:13.830Z,94.00
2018-11-11T07:07:17.547Z,93.00
2018-11-11T07:08:21.071Z,92.40
2018-11-11T07:09:24.651Z,91.70
2018-11-11T07:10:28.235Z,90.40
2018-11-11T07:11:31.824Z,89.80
2018-11-11T07:12:35.403Z,88.90
2018-11-11T07:13:38.991Z,83.60
2018-11-11T07:14:42.636Z,82.30
2018-11-11T07:15:46.226Z,79.00
2018-11-11T07:16:49.771Z,78.50
2018-11-11T07:17:53.347Z,76.70
2018-11-11T07:18:56.935Z,75.50
2018-11-11T07:20:00.510Z,72.60
2018-11-11T07:21:04.366Z,70.80
2018-11-11T07:22:08.076Z,69.60
2018-11-11T07:23:11.673Z,68.20
2018-11-11T07:24:15.280Z,67.70
2018-11-11T07:25:18.811Z,66.40
2018-11-11T07:26:22.390Z,65.90
2018-11-11T07:27:26.187Z,66.80
2018-11-11T07:28:29.792Z,67.30
2018-11-11T07:29:33.375Z,65.60
2018-11-11T07:30:36.958Z,65.00
2018-11-11T07:31:40.596Z,65.80
2018-11-11T07:32:44.184Z,67.50
2018-11-11T07:33:47.754Z,68.20
2018-11-11T07:34:51.331Z,69.70
2018-11-11T07:35:54.965Z,70.60
2018-11-11T07:36:58.496Z,72.30
2018-11-11T07:38:02.137Z,73.00
2018-11-11T07:39:09.292Z,74.70
2018-11-11T07:40:14.270Z,75.80
2018-11-11T07:41:17.851Z,76.80
2018-11-11T07:42:21.447Z,77.60
2018-11-11T07:43:25.015Z,78.40
2018-11-11T07:44:28.592Z,79.00
2018-11-11T07:45:32.184Z,79.90
2018-11-11T07:46:35.773Z,80.70
2018-11-11T07:47:39.354Z,81.20
2018-11-11T07:48:42.924Z,82.50
2018-11-11T07:49:46.498Z,81.90
2018-11-11T07:50:50.070Z,82.40
2018-11-11T07:51:53.719Z,82.60
2018-11-11T07:52:57.239Z,82.90
2018-11-11T07:54:00.822Z,83.50
2018-11-11T07:55:04.554Z,84.00
2018-11-11T07:56:08.087Z,83.90
2018-11-11T07:57:11.660Z,84.20
2018-11-11T07:58:15.263Z,84.20
2018-11-11T07:59:18.804Z,84.60
2018-11-11T08:00:22.386Z,84.80
2018-11-11T08:01:26.027Z,84.80
2018-11-11T08:02:29.567Z,84.80
2018-11-11T08:03:33.147Z,84.70
2018-11-11T08:04:36.859Z,84.80
2018-11-11T08:05:40.502Z,85.10
2018-11-11T08:06:44.059Z,85.20
2018-11-11T08:07:47.651Z,84.90
2018-11-11T08:08:51.235Z,84.90
2018-11-11T08:09:54.802Z,85.10
2018-11-11T08:11:09.890Z,85.10
2018-11-11T08:12:13.426Z,84.80
2018-11-11T08:13:17.015Z,85.00
2018-11-11T08:14:20.598Z,85.20
2018-11-11T08:15:24.175Z,84.50
2018-11-11T08:16:27.775Z,84.50
2018-11-11T08:17:31.465Z,83.90
2018-11-11T08:18:35.011Z,83.90
2018-11-11T08:19:38.619Z,83.60
2018-11-11T08:20:42.179Z,83.30
2018-11-11T08:21:45.774Z,83.20
2018-11-11T08:22:49.353Z,83.30
2018-11-11T08:23:52.934Z,83.10
2018-11-11T08:24:56.518Z,82.90
2018-11-11T08:26:00.108Z,82.50
2018-11-11T08:27:03.780Z,82.90
2018-11-11T08:28:07.369Z,83.20
2018-11-11T08:29:10.912Z,83.50
2018-11-11T08:30:14.494Z,82.40
2018-11-11T08:31:18.084Z,82.60
2018-11-11T08:32:21.724Z,82.30
2018-11-11T08:33:25.254Z,82.90
2018-11-11T08:34:28.837Z,83.00
2018-11-11T08:35:32.412Z,82.70
2018-11-11T08:36:36.091Z,82.60
2018-11-11T08:37:40.043Z,82.70
2018-11-11T08:38:43.619Z,83.80
2018-11-11T08:39:47.274Z,82.80
2018-11-11T08:40:50.823Z,82.60
2018-11-11T08:41:54.398Z,82.50
2018-11-11T08:42:58.005Z,82.40
2018-11-11T08:44:01.583Z,82.70
2018-11-11T08:45:07.359Z,83.10
2018-11-11T08:46:10.931Z,82.90
2018-11-11T08:47:14.514Z,82.60
2018-11-11T08:48:18.131Z,83.10
2018-11-11T08:49:21.679Z,83.10
2018-11-11T08:50:25.264Z,83.00
2018-11-11T08:51:28.838Z,83.30
2018-11-11T08:52:32.426Z,83.70
2018-11-11T08:53:36.007Z,83.90
2018-11-11T08:54:39.587Z,83.80
2018-11-11T08:55:43.167Z,83.90
2018-11-11T08:56:46.765Z,84.00
2018-11-11T08:57:50.366Z,84.20
2018-11-11T08:58:54.151Z,84.30
2018-11-11T08:59:57.695Z,84.40
2018-11-11T09:01:01.375Z,84.40
2018-11-11T09:02:05.215Z,84.70
2018-11-11T09:03:08.820Z,84.60
2018-11-11T09:04:12.395Z,84.70
2018-11-11T09:05:15.979Z,84.60
2018-11-11T09:06:19.838Z,84.50
2018-11-11T09:07:23.499Z,84.80
2018-11-11T09:08:27.063Z,85.00
2018-11-11T09:09:30.650Z,85.10
2018-11-11T09:10:34.232Z,85.40
2018-11-11T09:11:37.887Z,85.40
2018-11-11T09:12:41.427Z,85.30
2018-11-11T09:13:45.022Z,85.40
2018-11-11T09:14:48.875Z,85.30
2018-11-11T09:15:52.463Z,85.00
2018-11-11T09:16:56.047Z,84.80
2018-11-11T09:17:59.648Z,84.80
2018-11-11T09:19:03.239Z,84.50
2018-11-11T09:20:07.274Z,84.50
2018-11-11T09:21:10.913Z,84.00
2018-11-11T09:22:14.435Z,84.30
2018-11-11T09:23:18.055Z,84.20
2018-11-11T09:24:21.650Z,84.20
2018-11-11T09:25:25.304Z,84.20
2018-11-11T09:26:28.831Z,84.20
2018-11-11T09:27:32.420Z,84.50
2018-11-11T09:28:35.996Z,84.30
2018-11-11T09:29:39.695Z,85.20
2018-11-11T09:30:43.192Z,83.90
2018-11-11T09:31:46.784Z,83.80
2018-11-11T09:32:50.476Z,83.90
2018-11-11T09:33:54.027Z,83.70
2018-11-11T09:34:57.608Z,83.70
2018-11-11T09:36:01.192Z,84.10
2018-11-11T09:37:04.774Z,83.50
2018-11-11T09:38:08.358Z,83.70
2018-11-11T09:39:12.601Z,83.80
2018-11-11T09:40:16.059Z,83.70
2018-11-11T09:41:19.651Z,83.60
2018-11-11T09:42:23.263Z,83.60
2018-11-11T09:43:26.823Z,83.40
2018-11-11T09:44:30.438Z,83.00
2018-11-11T09:45:34.072Z,82.50
2018-11-11T09:46:37.612Z,82.40
2018-11-11T09:47:41.502Z,82.00
2018-11-11T09:48:45.021Z,81.90
2018-11-11T09:49:48.603Z,82.30
2018-11-11T09:50:52.195Z,81.90
2018-11-11T09:51:55.771Z,81.40
2018-11-11T09:52:59.359Z,81.70
2018-11-11T09:54:02.979Z,81.50
2018-11-11T09:55:07.259Z,81.50
2018-11-11T09:56:10.898Z,81.30
2018-11-11T09:57:14.483Z,81.30
2018-11-11T09:58:18.063Z,81.20
2018-11-11T09:59:21.658Z,81.00
2018-11-11T10:00:25.242Z,81.00
2018-11-11T10:01:29.103Z,81.00
2018-11-11T10:02:32.746Z,80.80
2018-11-11T10:03:42.668Z,80.90
2018-11-11T10:04:50.731Z,80.60
2018-11-11T10:05:57.386Z,80.40
2018-11-11T10:07:04.642Z,80.00
2018-11-11T10:10:17.527Z,79.70
2018-11-11T10:11:33.359Z,79.90
2018-11-11T10:12:41.870Z,80.30
2018-11-11T10:13:52.744Z,80.40
2018-11-11T10:16:00.510Z,80.70
2018-11-11T10:17:09.639Z,81.00
2018-11-11T10:18:18.718Z,81.40
2018-11-11T10:19:27.804Z,81.60
2018-11-11T10:20:38.707Z,81.50
2018-11-11T10:22:22.974Z,82.40
2018-11-11T10:23:47.460Z,81.80
2018-11-11T10:25:26.489Z,81.70
2018-11-11T10:26:48.606Z,81.80
2018-11-11T10:28:01.420Z,81.70
2018-11-11T10:29:13.235Z,82.00
2018-11-11T10:32:30.262Z,82.00
2018-11-11T10:33:39.422Z,81.70
2018-11-11T10:34:46.303Z,82.30
2018-11-11T10:35:54.302Z,82.30
2018-11-11T10:37:01.991Z,81.80
2018-11-11T10:38:10.075Z,82.10
2018-11-11T10:39:25.450Z,82.30
2018-11-11T10:41:35.106Z,82.70
2018-11-11T10:43:13.690Z,81.30
2018-11-11T10:44:25.830Z,81.40
2018-11-11T10:45:37.708Z,80.80
2018-11-11T10:46:46.071Z,80.40
2018-11-11T10:47:53.763Z,80.50
2018-11-11T10:49:03.399Z,80.00
2018-11-11T10:50:09.440Z,79.80
2018-11-11T10:51:13.053Z,80.00
2018-11-11T10:52:16.685Z,79.50
2018-11-11T10:53:20.410Z,79.20
2018-11-11T10:54:24.060Z,79.00
2018-11-11T10:55:27.588Z,79.30
2018-11-11T10:56:31.244Z,78.10
2018-11-11T10:57:34.828Z,78.60
2018-11-11T10:58:38.404Z,78.20
2018-11-11T10:59:41.983Z,77.30
2018-11-11T11:00:51.034Z,77.70
2018-11-11T11:02:00.052Z,77.80
2018-11-11T11:03:03.986Z,77.00
2018-11-11T11:04:07.564Z,77.00
2018-11-11T11:05:11.883Z,76.80
2018-11-11T11:06:15.542Z,76.80
2018-11-11T11:07:19.047Z,77.10
2018-11-11T11:08:22.624Z,76.80
2018-11-11T11:09:26.206Z,76.80
2018-11-11T11:10:29.784Z,77.10
2018-11-11T11:11:33.367Z,77.20
2018-11-11T11:12:36.942Z,76.70
2018-11-11T11:13:40.558Z,77.10
2018-11-11T11:14:44.107Z,76.20
2018-11-11T11:15:47.675Z,76.90
2018-11-11T11:16:51.254Z,77.10
2018-11-11T11:17:54.843Z,77.50
2018-11-11T11:18:58.402Z,76.90
2018-11-11T11:20:01.986Z,76.50
2018-11-11T11:21:05.563Z,76.40
2018-11-11T11:22:09.292Z,76.10
2018-11-11T11:23:12.884Z,75.70
2018-11-11T11:24:16.423Z,74.30
2018-11-11T11:25:19.999Z,73.20
2018-11-11T11:26:23.583Z,72.40
2018-11-11T11:27:27.776Z,72.20
2018-11-11T11:28:31.350Z,71.80
2018-11-11T11:29:34.907Z,71.10
2018-11-11T11:30:38.475Z,71.20
2018-11-11T11:31:42.126Z,71.10
2018-11-11T11:32:45.709Z,71.10
2018-11-11T11:33:49.254Z,70.40
2018-11-11T11:34:52.826Z,70.10
2018-11-11T11:35:56.399Z,70.40
2018-11-11T11:36:59.978Z,70.20
2018-11-11T11:38:03.579Z,70.20
2018-11-11T11:39:08.480Z,70.10
2018-11-11T11:40:12.070Z,70.30
2018-11-11T11:41:15.667Z,70.50
2018-11-11T11:42:19.211Z,70.70
2018-11-11T11:43:22.780Z,70.30
2018-11-11T11:44:26.352Z,68.00
2018-11-11T11:45:29.930Z,67.50
2018-11-11T11:46:33.539Z,68.00
2018-11-11T11:47:37.223Z,67.20
2018-11-11T11:48:40.716Z,65.40
2018-11-11T11:49:44.326Z,64.70
2018-11-11T11:50:47.875Z,63.90
2018-11-11T11:51:51.474Z,62.60
2018-11-11T11:52:55.073Z,61.30
2018-11-11T11:53:59.090Z,60.90
2018-11-11T11:55:02.673Z,59.50
2018-11-11T11:56:06.271Z,58.70
2018-11-11T11:57:09.930Z,58.60
2018-11-11T11:58:17.250Z,58.20
2018-11-11T11:59:20.835Z,58.10
2018-11-11T12:00:24.418Z,58.30
2018-11-11T12:01:27.998Z,58.10
2018-11-11T12:02:31.755Z,57.80
2018-11-11T12:04:45.292Z,58.60
2018-11-11T12:05:48.871Z,57.50
2018-11-11T12:06:52.455Z,57.70
2018-11-11T12:07:56.048Z,58.00
2018-11-11T12:08:59.678Z,58.40
2018-11-11T12:10:03.351Z,58.10
2018-11-11T12:11:06.942Z,58.10
2018-11-11T12:12:10.531Z,58.40
2018-11-11T12:13:14.880Z,58.90
2018-11-11T12:14:18.463Z,59.50
2018-11-11T12:15:22.035Z,60.80
2018-11-11T12:16:25.622Z,62.00
2018-11-11T12:17:29.240Z,63.20
2018-11-11T12:18:32.826Z,64.10
2018-11-11T12:19:36.399Z,65.00
2018-11-11T12:20:40.318Z,65.20
2018-11-11T12:21:43.939Z,65.70
2018-11-11T12:22:47.522Z,66.70
2018-11-11T12:23:51.092Z,66.60
2018-11-11T12:24:54.742Z,66.80
2018-11-11T12:25:58.270Z,66.40
2018-11-11T12:27:01.843Z,65.80
2018-11-11T12:28:05.614Z,64.70
2018-11-11T12:29:09.195Z,64.60
2018-11-11T12:30:12.776Z,63.50
2018-11-11T12:31:16.377Z,63.30
2018-11-11T12:32:19.970Z,62.90
2018-11-11T12:33:23.555Z,62.80
2018-11-11T12:34:27.307Z,63.30
2018-11-11T12:35:31.099Z,63.80
2018-11-11T12:36:34.748Z,63.80
2018-11-11T12:37:38.595Z,63.90
2018-11-11T12:38:42.172Z,64.50
2018-11-11T12:39:45.853Z,64.50
2018-11-11T12:40:49.371Z,64.90
2018-11-11T12:41:52.910Z,65.50
2018-11-11T12:42:56.527Z,64.90
2018-11-11T12:44:00.115Z,65.10
2018-11-11T12:45:03.699Z,64.70
2018-11-11T12:46:07.369Z,65.10
2018-11-11T12:47:11.005Z,65.60
2018-11-11T12:48:14.516Z,66.30
2018-11-11T12:49:18.285Z,66.80
2018-11-11T12:50:21.899Z,66.90
2018-11-11T12:51:25.438Z,66.80
2018-11-11T12:52:29.007Z,66.50
2018-11-11T12:53:32.584Z,66.40
2018-11-11T12:54:36.193Z,66.20
2018-11-11T12:55:39.727Z,66.20
2018-11-11T12:56:43.314Z,66.10
2018-11-11T12:57:46.895Z,65.50
2018-11-11T12:58:50.470Z,64.50
2018-11-11T12:59:54.063Z,63.10
2018-11-11T13:00:57.807Z,62.70
2018-11-11T13:02:01.327Z,62.10
2018-11-11T13:03:04.889Z,61.50
2018-11-11T13:04:08.458Z,62.10
2018-11-11T13:05:12.344Z,61.40
2018-11-11T13:06:15.914Z,61.70
2018-11-11T13:07:19.487Z,61.80
2018-11-11T13:08:23.068Z,61.80
2018-11-11T13:09:26.663Z,61.80
2018-11-11T13:10:30.214Z,62.20
2018-11-11T13:11:33.865Z,62.50
2018-11-11T13:12:37.387Z,62.20
2018-11-11T13:13:40.966Z,62.50
2018-11-11T13:14:44.538Z,62.90
2018-11-11T13:15:48.119Z,63.30
2018-11-11T13:16:51.805Z,63.00
2018-11-11T13:17:55.347Z,62.90
2018-11-11T13:18:58.911Z,62.60
2018-11-11T13:20:02.490Z,62.50
2018-11-11T13:21:06.138Z,61.30
2018-11-11T13:22:09.798Z,61.00
2018-11-11T13:23:13.299Z,61.00
2018-11-11T13:24:16.929Z,61.20
2018-11-11T13:25:20.559Z,62.40
2018-11-11T13:26:24.139Z,63.20
2018-11-11T13:27:28.035Z,63.00
2018-11-11T13:28:31.639Z,63.40
2018-11-11T13:29:35.213Z,63.90
2018-11-11T13:30:38.795Z,64.00
2018-11-11T13:31:42.575Z,64.30
2018-11-11T13:32:46.092Z,64.20
2018-11-11T13:33:49.670Z,64.10
2018-11-11T13:34:53.248Z,64.20
2018-11-11T13:35:56.822Z,64.70
2018-11-11T13:37:00.419Z,64.80
2018-11-11T13:38:04.043Z,65.20
2018-11-11T13:39:09.895Z,65.30
2018-11-11T13:40:15.440Z,65.60
2018-11-11T13:41:19.016Z,65.90
2018-11-11T13:42:22.676Z,65.90
2018-11-11T13:43:26.235Z,66.30
2018-11-11T13:44:29.821Z,66.70
2018-11-11T13:45:33.388Z,67.10
2018-11-11T13:46:37.681Z,67.20
2018-11-11T13:47:41.492Z,67.50
2018-11-11T13:48:45.079Z,67.50
2018-11-11T13:49:48.662Z,67.80
2018-11-11T13:50:52.238Z,68.20
2018-11-11T13:51:55.807Z,68.00
2018-11-11T13:52:59.399Z,68.10